Weather observations for the past three days for
Jerome County Airport
Imperial (Metric)
Date Time (mdt) Wind (mph) Vis. (mi.) Weather Sky Cond. Temperature (ºF) Relative Humidity Wind Chill (°F) Heat Index (°F) Pressure Precipitation (in)
Air Dwpt 6 hour altimeter (in) sea level (mb) 1 hr 3 hr 6 hr
Max. Min.
02 10:53 W 12 10.00 Fair CLR 69.1 26.1 20% 29.96 1011.0
02 09:53 SW 9 10.00 Fair CLR 64 36 35% 29.94 1010.5
02 08:53 SW 12 10.00 Fair CLR 60.1 32 35% 29.92 1010.3
02 07:53 SW 13 10.00 Fair CLR 57 33.1 41% 29.9 1009.3
02 06:53 SW 12 10.00 Fair CLR 55 36 49% 29.84 1007.4
02 05:53 S 9 10.00 Fair CLR 57.9 39.9 66 54 51% 29.82 1006.6
02 04:53 E 3 10.00 Fair CLR 59 39.9 49% 29.8 1005.6
02 03:53 SE 5 10.00 Fair CLR 55.9 44.1 65% 29.8 1005.4
02 02:53 SE 6 10.00 Fair CLR 60.1 46.9 62% 29.8 1004.9
02 01:53 S 6 10.00 Fair CLR 62.1 46 56% 29.8 1004.9
02 00:53 S 9 10.00 Fair CLR 63 45 52% 29.8 1004.9
01 23:53 S 8 10.00 Fair CLR 63 46 75 63 54% 29.81 1005.4
01 22:53 S 8 10.00 Fair CLR 66.9 46.9 49% 29.81 1005.4
01 21:53 SE 12 10.00 Fair CLR 68 50 53% 29.79 1005.2
01 20:53 E 14 10.00 Fair CLR 69.1 50 51% 29.79 1005.3
01 19:53 E 14 10.00 Fair CLR 72 48.9 44% 29.8 1005.7
01 18:53 E 13 10.00 Fair CLR 73.9 50 43% 29.81 1006.0
01 17:53 E 12 G 23 10.00 Fair CLR 73 52 84.9 62.1 48% 29.83 1006.9 0.24 0.27
01 16:53 E 15 G 24 7.00 Thunderstorm Rain SCT070 BKN090 OVC110 75.9 39 26% 77 29.87 1008.0 0.03
01 15:53 E 8 10.00 Fair CLR 80.1 46 30% 79 29.86 1007.1
01 14:53 E 14 G 21 10.00 Fair CLR 84.9 43 23% 82 29.88 1007.4
01 13:53 SE 9 G 17 10.00 Fair CLR 82.9 44.1 25% 81 29.91 1008.7
01 12:53 E 15 10.00 Fair CLR 82 46.9 29% 80 29.93 1009.5
01 11:53 E 15 G 24 10.00 Fair CLR 79 48.9 79 59 35% 79 29.96 1010.3
01 10:53 E 16 10.00 Fair CLR 73.9 48.9 41% 29.97 1010.7
01 09:53 E 18 10.00 Fair CLR 69.1 52 55% 29.97 1010.7
01 08:53 E 18 10.00 Fair CLR 64.9 50 59% 29.97 1011.0
01 07:53 E 17 10.00 Fair CLR 60.1 50 70% 29.96 1010.9
01 06:53 E 16 10.00 Fair CLR 59 48 67% 29.95 1010.4
01 05:53 E 16 10.00 Fair CLR 59 48 68 59 67% 29.95 1010.2
01 04:53 E 15 10.00 Fair CLR 62.1 46.9 58% 29.95 1010.1
01 03:53 E 18 10.00 Fair CLR 64 46 52% 29.94 1009.8
01 02:53 E 16 10.00 Fair CLR 66 46 49% 29.94 1009.7
01 01:53 E 15 10.00 Fair CLR 64 48 56% 29.94 1009.7
01 00:53 E 13 10.00 Fair CLR 66 46.9 50% 29.93 1009.7
31 23:53 SE 15 10.00 Fair CLR 68 46 84.9 68 45% 29.94 1010.0
31 22:53 E 17 10.00 Fair CLR 73 41 32% 29.94 1010.1
31 21:53 E 23 G 33 10.00 Fair and Breezy CLR 75 39 27% 77 29.93 1010.1
31 20:53 SE 23 G 32 9.00 Fair and Breezy CLR 75.9 41 29% 77 29.92 1010.0
31 19:53 S 10 10.00 Fair CLR 80.1 45 29% 79 29.92 1010.1
31 18:53 E 6 10.00 Fair CLR 84.9 39 20% 82 29.91 1009.9
31 17:53 N 3 10.00 Fair CLR 84 39.9 84.9 73 21% 81 29.92 1010.1
31 16:53 N 7 10.00 Fair CLR 84 37 19% 81 29.94 1010.5
31 15:53 Calm 10.00 Fair CLR 82.9 34 17% 80 29.96 1011.1
31 14:53 NE 8 10.00 Fair CLR 82 33.1 17% 80 29.99 1012.1
31 13:53 NE 8 10.00 Fair CLR 79 33.1 19% 78 30.03 1013.7
31 12:53 E 8 10.00 Fair CLR 75.9 24.1 14% 76 30.06 1014.7
31 11:53 E 10 10.00 Fair CLR 73 23 73 43 15% 30.08 1015.6
31 10:53 NE 13 10.00 Fair CLR 69.1 27 21% 30.08 1015.7
31 09:53 E 9 10.00 Fair CLR 62.1 32 32% 30.09 1016.3
31 08:53 E 10 10.00 Fair CLR 57 30 36% 30.08 1016.1
31 07:53 E 10 10.00 Fair CLR 50 30 46% 46 30.08 1016.5
31 06:53 NE 12 10.00 Fair CLR 45 32 61% 40 30.07 1016.3
31 05:53 E 6 10.00 Fair CLR 48 28 59 44.1 46% 46 30.08 1016.1
31 04:53 SE 7 10.00 Fair CLR 48.9 26.1 41% 46 30.07 1015.7
31 03:53 SE 3 10.00 Fair CLR 52 24.1 34% 30.07 1015.7
31 02:53 S 3 10.00 Fair CLR 55 25 31% 30.07 1015.8
31 01:53 SE 7 10.00 Fair CLR 52 30 43% 30.07 1016.1
31 00:53 S 6 10.00 Fair CLR 55 28.9 37% 30.07 1016.0
30 23:53 SE 7 10.00 Fair CLR 57 28 73.9 57 33% 30.07 1016.1
30 22:53 SW 6 10.00 Fair CLR 61 25 25% 30.07 1016.0
30 21:53 W 8 10.00 Fair CLR 61 28 29% 30.06 1015.9
30 20:53 SW 7 10.00 Fair CLR 66.9 26.1 21% 30.05 1015.1
30 19:53 SW 6 10.00 Fair CLR 68 28.9 23% 30.04 1015.2
30 18:53 W 8 10.00 Light Rain CLR 72 25 17% 30.05 1015.0
30 17:53 W 12 10.00 Fair CLR 73.9 25 75 62.1 16% 30.05 1015.0
30 16:53 W 13 10.00 Fair CLR 73.9 25 16% 30.06 1015.1
30 15:53 W 13 10.00 Fair CLR 72 30 21% 30.09 1016.0
30 14:53 W 12 G 22 10.00 Fair CLR 69.1 32 25% 30.1 1016.8
30 13:53 W 14 G 22 10.00 Fair CLR 66.9 33.1 29% 30.11 1017.0
30 12:53 W 12 G 23 10.00 Fair CLR 64 34 33% 30.13 1017.6
30 11:53 W 18 10.00 Fair CLR 63 33.1 63 50 33% 30.13 1017.8
Date Time (mdt) Wind (mph) Vis. (mi.) Weather Sky Cond. Air Dwpt Max. Min. Relative Humidity Wind Chill (°F) Heat Index (°F) altimeter (in) sea level (mb) 1 hr 3 hr 6 hr
6 hour
Temperature (ºF) Pressure Precipitation (in)